createdAt,value
2023-06-30T00:00:12.893Z,13.72
2023-06-30T00:02:43.179Z,12.94
2023-06-30T00:05:10.830Z,12.09
2023-06-30T00:07:38.005Z,12.49
2023-06-30T00:10:05.758Z,12.79
2023-06-30T00:12:32.434Z,13.02
2023-06-30T00:14:59.278Z,13.15
2023-06-30T00:17:25.952Z,12.68
2023-06-30T00:19:52.743Z,12.96
2023-06-30T00:22:22.743Z,13.11
2023-06-30T00:24:56.379Z,13.20
2023-06-30T00:27:23.856Z,12.97
2023-06-30T00:29:50.519Z,12.58
2023-06-30T00:32:17.217Z,12.92
2023-06-30T00:34:44.017Z,11.51
2023-06-30T00:37:10.677Z,12.62
2023-06-30T00:39:37.319Z,12.70
2023-06-30T00:42:04.237Z,12.85
2023-06-30T00:44:30.876Z,13.11
2023-06-30T00:47:01.028Z,12.91
2023-06-30T00:49:28.832Z,12.72
2023-06-30T00:51:55.536Z,12.91
2023-06-30T00:54:22.320Z,13.20
2023-06-30T00:56:48.978Z,12.86
2023-06-30T00:59:15.861Z,13.12
2023-06-30T01:01:57.659Z,13.31
2023-06-30T01:04:37.423Z,13.01
2023-06-30T01:07:37.503Z,12.85
2023-06-30T01:10:24.911Z,13.17
2023-06-30T01:12:51.690Z,11.68
2023-06-30T01:15:18.462Z,12.64
2023-06-30T01:17:47.641Z,12.45
2023-06-30T01:20:15.631Z,12.79
2023-06-30T01:22:50.046Z,12.67
2023-06-30T01:25:21.376Z,12.64
2023-06-30T01:27:48.116Z,12.93
2023-06-30T01:30:15.300Z,12.49
2023-06-30T01:32:42.522Z,12.40
2023-06-30T01:35:09.359Z,12.67
2023-06-30T01:37:36.024Z,12.43
2023-06-30T01:40:05.466Z,11.34
2023-06-30T01:42:32.111Z,12.61
2023-06-30T01:44:58.992Z,12.56
2023-06-30T01:47:25.829Z,12.97
2023-06-30T01:49:52.733Z,12.64
2023-06-30T01:52:19.380Z,11.02
2023-06-30T01:54:46.191Z,12.68
2023-06-30T01:57:16.009Z,12.78
2023-06-30T01:59:42.700Z,12.08
2023-06-30T02:02:09.367Z,12.36
2023-06-30T02:04:36.113Z,11.56
2023-06-30T02:07:02.792Z,12.64
2023-06-30T02:09:42.529Z,12.22
2023-06-30T02:12:14.417Z,12.70
2023-06-30T02:14:41.248Z,12.62
2023-06-30T02:17:09.843Z,12.71
2023-06-30T02:19:36.469Z,11.88
2023-06-30T02:22:03.592Z,12.26
2023-06-30T02:24:30.252Z,12.12
2023-06-30T02:26:56.910Z,12.16
2023-06-30T02:29:24.080Z,12.20
2023-06-30T02:31:50.875Z,12.46
2023-06-30T02:34:17.557Z,11.96
2023-06-30T02:36:44.358Z,12.08
2023-06-30T02:39:11.008Z,11.94
2023-06-30T02:41:37.693Z,12.58
2023-06-30T02:44:04.474Z,12.41
2023-06-30T02:46:31.454Z,12.71
2023-06-30T02:48:58.203Z,12.59
2023-06-30T02:51:24.848Z,12.40
2023-06-30T02:53:51.592Z,12.36
2023-06-30T02:56:18.730Z,12.57
2023-06-30T02:58:45.586Z,11.92
2023-06-30T03:01:12.321Z,12.34
2023-06-30T03:03:39.943Z,12.58
2023-06-30T03:06:06.846Z,12.50
2023-06-30T03:08:33.540Z,10.93
2023-06-30T03:11:00.943Z,12.51
2023-06-30T03:13:27.800Z,12.47
2023-06-30T03:15:54.438Z,12.51
2023-06-30T03:18:21.281Z,12.05
2023-06-30T03:20:48.695Z,12.52
2023-06-30T03:23:15.521Z,12.42
2023-06-30T03:25:42.556Z,11.64
2023-06-30T03:28:09.312Z,12.67
2023-06-30T03:30:36.001Z,12.51
2023-06-30T03:33:02.886Z,12.77
2023-06-30T03:35:30.388Z,13.08
2023-06-30T03:37:57.093Z,13.08
2023-06-30T03:40:23.948Z,13.24
2023-06-30T03:42:50.845Z,12.60
2023-06-30T03:45:17.690Z,12.92
2023-06-30T03:47:44.376Z,13.01
2023-06-30T03:50:11.285Z,12.74
2023-06-30T03:52:38.956Z,13.22
2023-06-30T03:55:05.951Z,12.23
2023-06-30T03:57:32.578Z,12.50
2023-06-30T03:59:59.316Z,12.97
2023-06-30T04:02:26.082Z,12.11
2023-06-30T04:04:52.797Z,13.12
2023-06-30T04:07:19.640Z,13.15
2023-06-30T04:09:46.505Z,13.32
2023-06-30T04:12:13.203Z,12.47
2023-06-30T04:14:40.142Z,12.70
2023-06-30T04:17:06.894Z,12.80
2023-06-30T04:19:33.610Z,13.62
2023-06-30T04:22:01.921Z,13.43
2023-06-30T04:24:30.755Z,13.70
2023-06-30T04:26:57.524Z,13.32
2023-06-30T04:29:24.836Z,13.77
2023-06-30T04:31:51.561Z,13.24
2023-06-30T04:34:18.257Z,13.03
2023-06-30T04:36:44.944Z,14.31
2023-06-30T04:39:11.656Z,14.73
2023-06-30T04:41:38.783Z,14.94
2023-06-30T04:44:05.573Z,15.22
2023-06-30T04:46:32.562Z,15.50
2023-06-30T04:49:02.080Z,15.15
2023-06-30T04:51:29.364Z,15.31
2023-06-30T04:53:56.008Z,17.25
2023-06-30T04:56:22.949Z,19.52
2023-06-30T04:58:50.601Z,20.15
2023-06-30T05:01:17.557Z,21.56
2023-06-30T05:03:44.491Z,24.07
2023-06-30T05:06:11.158Z,24.89
2023-06-30T05:08:37.890Z,25.84
2023-06-30T05:11:07.066Z,27.30
2023-06-30T05:13:36.262Z,28.42
2023-06-30T05:16:02.997Z,28.94
2023-06-30T05:18:29.748Z,29.41
2023-06-30T05:20:56.570Z,31.31
2023-06-30T05:23:24.816Z,31.75
2023-06-30T05:25:51.631Z,32.52
2023-06-30T05:28:18.286Z,33.57
2023-06-30T05:30:45.023Z,33.69
2023-06-30T05:33:11.659Z,34.57
2023-06-30T05:35:38.388Z,35.08
2023-06-30T05:38:05.147Z,36.10
2023-06-30T05:40:31.859Z,36.92
2023-06-30T05:42:58.527Z,37.27
2023-06-30T05:45:26.532Z,37.86
2023-06-30T05:47:53.268Z,38.08
2023-06-30T05:50:23.288Z,38.95
2023-06-30T05:52:50.536Z,39.03
2023-06-30T05:55:17.428Z,39.82
2023-06-30T05:57:44.074Z,40.33
2023-06-30T06:00:11.652Z,40.57
2023-06-30T06:02:38.489Z,41.14
2023-06-30T06:05:06.042Z,41.75
2023-06-30T06:07:33.313Z,42.22
2023-06-30T06:10:00.057Z,42.00
2023-06-30T06:12:26.747Z,42.85
2023-06-30T06:14:53.414Z,43.50
2023-06-30T06:17:20.075Z,43.38
2023-06-30T06:19:46.787Z,43.17
2023-06-30T06:22:13.459Z,43.77
2023-06-30T06:24:40.105Z,44.00
2023-06-30T06:27:06.967Z,44.97
2023-06-30T06:29:34.068Z,44.54
2023-06-30T06:32:00.806Z,44.52
2023-06-30T06:34:27.505Z,44.89
2023-06-30T06:36:54.186Z,44.99
2023-06-30T06:39:22.154Z,44.94
2023-06-30T06:41:49.026Z,45.07
2023-06-30T06:44:15.735Z,45.35
2023-06-30T06:46:44.490Z,45.49
2023-06-30T06:49:11.560Z,45.24
2023-06-30T06:51:38.343Z,44.87
2023-06-30T06:54:05.000Z,45.97
2023-06-30T06:56:31.800Z,45.72
2023-06-30T06:58:58.526Z,46.20
2023-06-30T07:01:25.325Z,46.15
2023-06-30T07:03:52.184Z,44.89
2023-06-30T07:06:19.794Z,43.22
2023-06-30T07:08:46.616Z,41.87
2023-06-30T07:11:14.168Z,40.75
2023-06-30T07:13:41.088Z,39.06
2023-06-30T07:16:08.016Z,37.95
2023-06-30T07:18:35.517Z,36.66
2023-06-30T07:21:03.131Z,36.01
2023-06-30T07:23:29.914Z,35.14
2023-06-30T07:25:56.690Z,34.91
2023-06-30T07:28:23.365Z,33.24
2023-06-30T07:30:50.210Z,32.03
2023-06-30T07:33:18.496Z,32.26
2023-06-30T07:35:45.440Z,32.09
2023-06-30T07:38:12.583Z,31.73
2023-06-30T07:40:53.814Z,30.03
2023-06-30T07:43:22.285Z,29.65
2023-06-30T07:45:49.451Z,29.44
2023-06-30T07:48:16.529Z,29.89
2023-06-30T07:50:54.666Z,29.36
2023-06-30T07:53:30.195Z,28.91
2023-06-30T07:55:57.072Z,27.90
2023-06-30T07:58:23.868Z,28.01
2023-06-30T08:00:50.701Z,27.16
2023-06-30T08:03:17.972Z,28.32
2023-06-30T08:05:45.159Z,27.52
2023-06-30T08:08:12.387Z,27.64
2023-06-30T08:10:40.336Z,27.44
2023-06-30T08:13:08.162Z,27.04
2023-06-30T08:15:34.933Z,27.75
2023-06-30T08:18:08.581Z,27.63
2023-06-30T08:20:37.844Z,26.73
2023-06-30T08:23:04.676Z,27.31
2023-06-30T08:25:31.352Z,27.30
2023-06-30T08:27:58.429Z,27.72
2023-06-30T08:30:25.632Z,27.38
2023-06-30T08:32:52.936Z,27.57
2023-06-30T08:35:19.915Z,27.58
2023-06-30T08:37:49.322Z,26.81
2023-06-30T08:40:28.342Z,26.61
2023-06-30T08:42:55.125Z,27.43
2023-06-30T08:45:24.650Z,26.55
2023-06-30T08:47:51.438Z,27.30
2023-06-30T08:50:18.316Z,27.76
2023-06-30T08:52:45.024Z,26.87
2023-06-30T08:55:12.058Z,27.20
2023-06-30T08:57:38.970Z,27.22
2023-06-30T09:00:06.386Z,27.09
2023-06-30T09:02:33.389Z,27.47
2023-06-30T09:05:00.398Z,27.13
2023-06-30T09:07:30.206Z,28.04
2023-06-30T09:10:07.684Z,25.74
2023-06-30T09:12:34.388Z,26.63
2023-06-30T09:15:01.494Z,26.91
2023-06-30T09:17:28.515Z,27.74
2023-06-30T09:19:55.290Z,26.12
2023-06-30T09:22:54.652Z,27.77
2023-06-30T09:25:26.218Z,28.50
2023-06-30T09:27:53.451Z,27.26
2023-06-30T09:30:20.375Z,27.83
2023-06-30T09:32:47.133Z,28.14
2023-06-30T09:35:18.265Z,28.00
2023-06-30T09:37:45.310Z,27.68
2023-06-30T09:40:14.244Z,28.51
2023-06-30T09:42:46.824Z,28.04
2023-06-30T09:45:14.425Z,27.80
2023-06-30T09:47:41.329Z,27.90
2023-06-30T09:50:10.190Z,27.73
2023-06-30T09:52:38.691Z,26.62
2023-06-30T09:55:12.208Z,28.71
2023-06-30T09:57:41.246Z,29.14
2023-06-30T10:00:11.642Z,28.75
2023-06-30T10:02:45.495Z,28.77
2023-06-30T10:05:12.525Z,27.52
2023-06-30T10:07:41.450Z,28.34
2023-06-30T10:10:11.271Z,29.08
2023-06-30T10:12:38.369Z,28.84
2023-06-30T10:15:06.056Z,28.58
2023-06-30T10:17:33.125Z,28.41
2023-06-30T10:20:02.052Z,28.59
2023-06-30T10:22:32.134Z,28.82
2023-06-30T10:24:58.874Z,28.64
2023-06-30T10:27:25.596Z,28.04
2023-06-30T10:29:52.236Z,28.47
2023-06-30T10:32:21.754Z,27.44
2023-06-30T10:34:49.138Z,28.05
2023-06-30T10:37:54.949Z,28.61
2023-06-30T10:40:26.111Z,28.05
2023-06-30T10:42:57.541Z,28.09
2023-06-30T10:45:37.628Z,28.76
2023-06-30T10:48:11.155Z,28.08
2023-06-30T10:50:42.860Z,27.37
2023-06-30T10:53:09.600Z,27.89
2023-06-30T10:55:36.999Z,28.21
2023-06-30T10:58:06.030Z,29.07
2023-06-30T11:00:32.849Z,28.51
2023-06-30T11:03:00.521Z,29.14
2023-06-30T11:05:30.969Z,29.15
2023-06-30T11:08:11.930Z,28.57
2023-06-30T11:10:39.707Z,27.99
2023-06-30T11:13:10.260Z,28.66
2023-06-30T11:15:40.876Z,29.35
2023-06-30T11:18:13.903Z,29.39
2023-06-30T11:21:07.491Z,28.80
2023-06-30T11:23:38.814Z,28.54
2023-06-30T11:26:16.414Z,28.62
2023-06-30T11:28:44.040Z,27.20
2023-06-30T11:31:13.108Z,28.25
2023-06-30T11:33:40.854Z,28.48
2023-06-30T11:36:15.978Z,28.23
2023-06-30T11:38:49.267Z,28.73
2023-06-30T11:41:22.887Z,28.53
2023-06-30T11:43:51.110Z,28.20
2023-06-30T11:46:17.937Z,28.89
2023-06-30T11:48:44.753Z,28.85
2023-06-30T11:51:13.046Z,28.43
2023-06-30T11:53:43.904Z,29.18
2023-06-30T11:56:10.570Z,29.03
2023-06-30T11:58:38.132Z,27.56
2023-06-30T12:01:05.325Z,28.36
2023-06-30T12:03:32.099Z,28.44
2023-06-30T12:05:59.146Z,27.75
2023-06-30T12:08:31.853Z,28.08
2023-06-30T12:10:58.621Z,27.73
2023-06-30T12:13:29.217Z,28.09
2023-06-30T12:15:59.505Z,27.82
2023-06-30T12:18:36.493Z,28.00
2023-06-30T12:21:04.403Z,27.53
2023-06-30T12:23:31.072Z,28.20
2023-06-30T12:25:57.958Z,28.22
2023-06-30T12:28:24.735Z,28.17
2023-06-30T12:30:51.418Z,28.46
2023-06-30T12:33:21.157Z,28.66
2023-06-30T12:35:50.515Z,29.16
2023-06-30T12:38:17.241Z,29.03
2023-06-30T12:40:44.373Z,28.77
2023-06-30T12:43:11.307Z,28.73
2023-06-30T12:45:37.981Z,28.44
2023-06-30T12:48:04.901Z,28.90
2023-06-30T12:50:31.655Z,29.04
2023-06-30T12:52:58.747Z,29.13
2023-06-30T12:55:25.420Z,29.54
2023-06-30T12:57:52.374Z,28.86
2023-06-30T13:00:19.277Z,29.07
2023-06-30T13:02:45.987Z,28.87
2023-06-30T13:05:12.832Z,29.38
2023-06-30T13:07:39.711Z,29.24
2023-06-30T13:10:07.792Z,28.48
2023-06-30T13:12:37.425Z,28.51
2023-06-30T13:15:05.083Z,28.60
2023-06-30T13:17:31.849Z,28.01
2023-06-30T13:19:59.067Z,27.72
2023-06-30T13:22:25.849Z,26.62
2023-06-30T13:24:53.220Z,27.79
2023-06-30T13:27:20.012Z,27.82
2023-06-30T13:29:50.692Z,27.71
2023-06-30T13:32:17.773Z,27.95
2023-06-30T13:34:47.943Z,28.03
2023-06-30T13:37:14.842Z,28.07
2023-06-30T13:39:41.554Z,27.13
2023-06-30T13:42:09.048Z,27.41
2023-06-30T13:44:36.074Z,27.80
2023-06-30T13:47:02.775Z,28.07
2023-06-30T13:49:29.475Z,27.89
2023-06-30T13:51:56.135Z,28.25
2023-06-30T13:54:23.207Z,27.61
2023-06-30T13:56:50.622Z,28.00
2023-06-30T13:59:17.452Z,28.42
2023-06-30T14:01:44.255Z,28.33
2023-06-30T14:04:10.982Z,27.70
2023-06-30T14:06:37.672Z,27.69
2023-06-30T14:09:04.621Z,26.57
2023-06-30T14:11:31.328Z,27.70
2023-06-30T14:13:58.563Z,27.53
2023-06-30T14:16:25.291Z,27.46
2023-06-30T14:18:52.088Z,27.41
2023-06-30T14:21:19.648Z,26.98
2023-06-30T14:23:46.429Z,26.75
2023-06-30T14:26:13.234Z,26.61
2023-06-30T14:28:40.010Z,27.63
2023-06-30T14:31:06.770Z,26.91
2023-06-30T14:33:33.605Z,26.79
2023-06-30T14:36:00.289Z,26.66
2023-06-30T14:38:26.961Z,27.00
2023-06-30T14:40:53.745Z,26.65
2023-06-30T14:43:24.691Z,26.88
2023-06-30T14:45:51.443Z,26.65
2023-06-30T14:48:18.208Z,27.20
2023-06-30T14:50:45.794Z,26.99
2023-06-30T14:53:12.836Z,26.52
2023-06-30T14:55:40.224Z,26.56
2023-06-30T14:58:06.989Z,26.51
2023-06-30T15:00:34.230Z,26.40
2023-06-30T15:03:01.639Z,25.06
2023-06-30T15:05:30.292Z,26.18
2023-06-30T15:07:57.031Z,25.73
2023-06-30T15:10:23.839Z,26.08
2023-06-30T15:12:50.698Z,25.11
2023-06-30T15:15:17.375Z,25.06
2023-06-30T15:17:44.137Z,26.18
2023-06-30T15:20:11.191Z,24.32
2023-06-30T15:22:37.930Z,26.16
2023-06-30T15:25:04.955Z,25.91
2023-06-30T15:27:33.347Z,26.39
2023-06-30T15:30:00.092Z,26.23
2023-06-30T15:32:27.072Z,26.14
2023-06-30T15:34:53.992Z,25.58
2023-06-30T15:37:20.625Z,26.10
2023-06-30T15:39:48.632Z,25.76
2023-06-30T15:42:15.334Z,26.30
2023-06-30T15:44:43.750Z,26.74
2023-06-30T15:47:10.680Z,25.93
2023-06-30T15:49:37.510Z,25.66
2023-06-30T15:52:04.998Z,24.52
2023-06-30T15:54:31.773Z,26.12
2023-06-30T15:56:59.573Z,26.23
2023-06-30T15:59:26.665Z,25.12
2023-06-30T16:01:53.805Z,25.07
2023-06-30T16:04:20.885Z,26.04
2023-06-30T16:06:47.636Z,25.65
2023-06-30T16:09:15.842Z,26.17
2023-06-30T16:11:42.565Z,25.16
2023-06-30T16:14:09.438Z,25.66
2023-06-30T16:16:36.643Z,25.53
2023-06-30T16:19:03.528Z,26.24
2023-06-30T16:21:30.499Z,26.07
2023-06-30T16:23:57.711Z,26.27
2023-06-30T16:26:24.690Z,25.97
2023-06-30T16:28:51.405Z,26.14
2023-06-30T16:31:18.312Z,25.84
2023-06-30T16:33:45.021Z,25.92
2023-06-30T16:36:11.752Z,24.84
2023-06-30T16:38:40.771Z,26.02
2023-06-30T16:41:07.813Z,25.75
2023-06-30T16:43:34.698Z,25.97
2023-06-30T16:46:01.394Z,25.33
2023-06-30T16:48:28.096Z,26.38
2023-06-30T16:50:54.774Z,25.79
2023-06-30T16:53:23.019Z,26.31
2023-06-30T16:55:51.600Z,25.61
2023-06-30T16:58:19.159Z,24.80
2023-06-30T17:00:45.998Z,26.28
2023-06-30T17:03:13.157Z,24.52
2023-06-30T17:05:40.161Z,25.97
2023-06-30T17:08:07.237Z,24.65
2023-06-30T17:10:33.981Z,25.22
2023-06-30T17:13:00.891Z,23.97
2023-06-30T17:15:27.642Z,25.16
2023-06-30T17:18:08.790Z,25.45
2023-06-30T17:20:38.526Z,24.10
2023-06-30T17:23:07.200Z,24.84
2023-06-30T17:25:33.930Z,24.85
2023-06-30T17:28:00.630Z,24.81
2023-06-30T17:30:27.288Z,24.82
2023-06-30T17:32:54.176Z,25.24
2023-06-30T17:35:20.930Z,24.76
2023-06-30T17:37:47.591Z,23.96
2023-06-30T17:40:14.466Z,24.55
2023-06-30T17:42:41.482Z,24.71
2023-06-30T17:45:08.521Z,24.67
2023-06-30T17:47:35.201Z,24.50
2023-06-30T17:50:01.988Z,24.17
2023-06-30T17:52:28.759Z,24.39
2023-06-30T17:54:55.426Z,24.24
2023-06-30T17:57:22.138Z,23.45
2023-06-30T17:59:48.832Z,23.50
2023-06-30T18:02:15.534Z,24.17
2023-06-30T18:04:42.345Z,24.00
2023-06-30T18:07:10.891Z,23.28
2023-06-30T18:09:39.243Z,23.37
2023-06-30T18:12:06.276Z,23.82
2023-06-30T18:14:33.410Z,23.84
2023-06-30T18:17:00.408Z,23.24
2023-06-30T18:19:27.111Z,23.07
2023-06-30T18:21:54.121Z,23.39
2023-06-30T18:24:20.948Z,22.66
2023-06-30T18:26:48.515Z,22.56
2023-06-30T18:29:22.441Z,22.72
2023-06-30T18:31:49.900Z,22.12
2023-06-30T18:34:16.806Z,21.95
2023-06-30T18:36:43.559Z,21.84
2023-06-30T18:39:10.452Z,22.14
2023-06-30T18:41:37.329Z,21.55
2023-06-30T18:44:04.633Z,22.09
2023-06-30T18:46:32.243Z,20.98
2023-06-30T18:48:59.371Z,21.96
2023-06-30T18:51:26.920Z,21.64
2023-06-30T18:53:54.180Z,21.55
2023-06-30T18:56:24.455Z,21.48
2023-06-30T18:58:55.498Z,21.95
2023-06-30T19:01:22.348Z,20.11
2023-06-30T19:03:51.304Z,21.56
2023-06-30T19:06:22.801Z,21.75
2023-06-30T19:08:51.245Z,21.81
2023-06-30T19:11:17.955Z,21.53
2023-06-30T19:13:44.886Z,21.29
2023-06-30T19:16:11.758Z,20.18
2023-06-30T19:18:40.102Z,21.41
2023-06-30T19:21:07.534Z,21.39
2023-06-30T19:23:37.147Z,20.24
2023-06-30T19:26:03.921Z,21.26
2023-06-30T19:28:30.753Z,20.88
2023-06-30T19:30:57.609Z,21.75
2023-06-30T19:33:29.652Z,20.37
2023-06-30T19:35:56.992Z,21.17
2023-06-30T19:38:26.495Z,21.27
2023-06-30T19:40:54.314Z,21.11
2023-06-30T19:43:21.069Z,20.83
2023-06-30T19:45:48.174Z,20.59
2023-06-30T19:48:16.831Z,20.42
2023-06-30T19:50:44.048Z,20.59
2023-06-30T19:53:11.013Z,21.12
2023-06-30T19:55:37.945Z,18.67
2023-06-30T19:58:05.197Z,20.84
2023-06-30T20:00:33.249Z,20.83
2023-06-30T20:03:00.003Z,21.45
2023-06-30T20:05:26.826Z,20.69
2023-06-30T20:07:53.686Z,20.47
2023-06-30T20:10:20.418Z,20.13
2023-06-30T20:12:47.245Z,20.05
2023-06-30T20:15:14.060Z,21.13
2023-06-30T20:17:40.775Z,20.45
2023-06-30T20:20:09.500Z,20.90
2023-06-30T20:22:36.269Z,20.05
2023-06-30T20:25:03.078Z,19.79
2023-06-30T20:27:30.099Z,20.13
2023-06-30T20:29:56.862Z,19.76
2023-06-30T20:32:23.590Z,20.43
2023-06-30T20:34:50.378Z,19.48
2023-06-30T20:37:17.040Z,20.27
2023-06-30T20:39:43.713Z,20.32
2023-06-30T20:42:10.591Z,19.95
2023-06-30T20:44:37.365Z,20.80
2023-06-30T20:47:04.746Z,20.62
2023-06-30T20:49:31.587Z,20.63
2023-06-30T20:51:58.324Z,20.47
2023-06-30T20:54:25.099Z,20.83
2023-06-30T20:56:53.199Z,21.45
2023-06-30T20:59:21.086Z,20.87
2023-06-30T21:01:48.380Z,20.54
2023-06-30T21:04:15.218Z,20.27
2023-06-30T21:06:42.033Z,20.68
2023-06-30T21:09:08.718Z,19.62
2023-06-30T21:11:35.436Z,20.03
2023-06-30T21:14:02.164Z,20.10
2023-06-30T21:16:28.932Z,19.49
2023-06-30T21:18:55.721Z,19.18
2023-06-30T21:21:22.502Z,20.09
2023-06-30T21:23:49.358Z,19.74
2023-06-30T21:26:16.147Z,20.13
2023-06-30T21:28:42.884Z,20.13
2023-06-30T21:31:09.577Z,20.23
2023-06-30T21:33:36.289Z,20.11
2023-06-30T21:36:03.120Z,20.69
2023-06-30T21:38:29.861Z,20.38
2023-06-30T21:40:56.572Z,20.54
2023-06-30T21:43:23.262Z,19.34
2023-06-30T21:45:50.231Z,19.17
2023-06-30T21:48:18.239Z,19.45
2023-06-30T21:50:45.218Z,19.56
2023-06-30T21:53:12.146Z,19.22
2023-06-30T21:55:38.992Z,19.63
2023-06-30T21:58:14.691Z,19.07
2023-06-30T22:00:50.288Z,19.90
2023-06-30T22:03:17.323Z,19.01
2023-06-30T22:05:44.045Z,19.40
2023-06-30T22:08:11.802Z,19.83
2023-06-30T22:10:38.504Z,19.13
2023-06-30T22:13:05.361Z,19.41
2023-06-30T22:15:32.164Z,19.92
2023-06-30T22:17:59.008Z,19.58
2023-06-30T22:20:28.607Z,20.05
2023-06-30T22:22:55.568Z,19.69
2023-06-30T22:25:22.350Z,19.57
2023-06-30T22:27:49.752Z,19.18
2023-06-30T22:30:17.347Z,18.83
2023-06-30T22:32:44.172Z,19.21
2023-06-30T22:35:11.137Z,20.07
2023-06-30T22:37:38.004Z,18.57
2023-06-30T22:40:05.096Z,18.69
2023-06-30T22:42:31.792Z,19.02
2023-06-30T22:44:58.578Z,19.72
2023-06-30T22:47:25.473Z,19.01
2023-06-30T22:49:52.280Z,18.27
2023-06-30T22:52:18.993Z,19.29
2023-06-30T22:54:45.700Z,18.72
2023-06-30T22:57:12.431Z,18.92
2023-06-30T22:59:39.180Z,18.95
2023-06-30T23:02:06.237Z,19.00
2023-06-30T23:04:32.946Z,19.62
2023-06-30T23:06:59.730Z,19.43
2023-06-30T23:09:26.472Z,19.20
2023-06-30T23:11:53.207Z,19.91
2023-06-30T23:14:22.205Z,18.16
2023-06-30T23:16:49.140Z,18.71
2023-06-30T23:19:16.135Z,18.98
2023-06-30T23:21:46.120Z,19.82
2023-06-30T23:24:12.992Z,18.94
2023-06-30T23:26:40.864Z,19.16
2023-06-30T23:29:09.802Z,19.73
2023-06-30T23:31:39.639Z,19.00
2023-06-30T23:34:06.840Z,19.43
2023-06-30T23:36:34.111Z,19.70
2023-06-30T23:39:00.878Z,18.82
2023-06-30T23:41:27.963Z,18.62
2023-06-30T23:43:54.723Z,18.90
2023-06-30T23:46:22.180Z,18.73
2023-06-30T23:48:52.561Z,19.25
2023-06-30T23:51:19.392Z,18.84
2023-06-30T23:53:46.095Z,18.44
2023-06-30T23:56:12.811Z,18.82
2023-06-30T23:58:39.512Z,18.96
